Joplin, MO

5:25 AM CST on December 27, 2014 (GMT -0600)
Mohaska | Change Station
CLOSE
Current Station
Personal Weather Station
Location: Joplin, MO
Elevation: 1010 ft
Nearby Weather Stations

Elev 1010 ft 37.06 °N, 94.52 °W | Updated 7 minutes ago

Overcast
Overcast
36.4 °F
Feels Like 36 °F
N
2.0
Wind Variable Wind from NW
Gusts 11.0 mph

Today
High -- | Low -- °F
--% Chance of Precip.
Yesterday
High -- | Low -- °F
Precip. -- in
7:30 AM 5:08 PM
Waxing Crescent, 35% visible
Pressure 30.15 in
Visibility 10.0 miles
Clouds Overcast 1100 ft
Windchill 36 °F
Dew Point 33 °F
Humidity 88%
Rainfall 0.00 in
Snow Depth Not available.
UV 0 out of 12
Pollen 5.50 out of 12
Air Quality Not available.
Flu Activity Not available.
METAR KJLN 271053Z AUTO 31010KT 10SM OVC011 02/01 A3015 RMK AO2 SLP210 T00220006

More Conditions Fewer Conditions

Pressure 30.15 in
Visibility 10.0 miles
Clouds Overcast 1100 ft
Windchill 36 °F
Dew Point 33 °F
Humidity 88%
Rainfall 0.00 in
Snow Depth Not available.
UV 0 out of 12
Pollen 5.50 out of 12
Air Quality Not available.
Flu Activity Not available.
METAR KJLN 271053Z AUTO 31010KT 10SM OVC011 02/01 A3015 RMK AO2 SLP210 T00220006

More Conditions Fewer Conditions

10-Day Weather Forecast

Almanac

Astronomy

Dec. 27, 2014 Rise Set
Actual Time
Civil Twilight
Nautical Twilight
Astronomical Twilight
Moon
Length of Visible Light
Length of Day
Tomorrow will be .
, % of the Moon is Illuminated

Today's Extremes

State Highs State Lows

Community

WunderPhotos

Upload Photos

1,780,881 photos uploaded!

WunderBlogs® & News

Nearby

Air Quality

  Air Quality AQ Index Pollutant
Not available.

Snow Depth

Station Depth Elevation

Earthquake Activity

City Distance Mag. Time & Date
Minimum magnitude displayed is 2.5.

Coastal Water Temperatures

Place Temperature

Nearby Weather Stations